Time;durP1;ratioP1;P1;durP2;ratioP2;P2;SDS_P1;SDS_P2;PMS_P1;PMS_P2;Temp;Humidity;BMP_temperature;BMP_pressure;BME280_temperature;BME280_humidity;BME280_pressure;Samples;Min_cycle;Max_cycle;Signal;HPM_P1;HPM_P2
2023/11/06 00:04:07;;;;;;;1.07;0.73;;;12.70;38.80;;;;;;10295126;28;20247;-78
2023/11/06 00:09:10;;;;;;;1.60;1.10;;;12.70;38.70;;;;;;10298191;28;20315;-78
2023/11/06 00:14:15;;;;;;;1.20;0.70;;;12.70;38.60;;;;;;10299047;28;20228;-78
2023/11/06 00:19:19;;;;;;;0.87;0.70;;;12.70;38.70;;;;;;10298802;28;20726;-78
2023/11/06 00:24:22;;;;;;;1.80;0.90;;;12.70;38.70;;;;;;10298755;28;20728;-77
2023/11/06 00:29:29;;;;;;;0.70;0.60;;;12.70;38.70;;;;;;10298693;28;20247;-78
2023/11/06 00:34:32;;;;;;;1.30;0.90;;;12.80;38.60;;;;;;10276100;28;20224;-78
2023/11/06 00:39:37;;;;;;;1.20;0.80;;;12.80;38.50;;;;;;10275777;28;20748;-77
2023/11/06 00:44:42;;;;;;;1.03;0.70;;;12.90;38.50;;;;;;10299401;28;20259;-78
2023/11/06 00:49:45;;;;;;;1.70;0.90;;;12.90;38.30;;;;;;10300013;28;20232;-78
2023/11/06 00:54:48;;;;;;;1.73;0.70;;;13.00;38.40;;;;;;10299283;28;20232;-78
2023/11/06 00:59:53;;;;;;;0.87;0.70;;;13.00;38.30;;;;;;10298337;28;20319;-77
2023/11/06 01:04:56;;;;;;;0.93;0.70;;;13.00;38.20;;;;;;10299811;28;20232;-78
2023/11/06 01:09:59;;;;;;;0.83;0.77;;;13.10;38.20;;;;;;10298050;28;20228;-78
2023/11/06 01:15:07;;;;;;;0.50;0.50;;;13.10;38.20;;;;;;10290443;28;20679;-78
2023/11/06 01:20:11;;;;;;;1.50;0.70;;;13.10;38.20;;;;;;10290491;28;20235;-78
2023/11/06 01:25:14;;;;;;;1.10;0.60;;;13.10;38.10;;;;;;10297532;28;20326;-78
2023/11/06 01:30:19;;;;;;;0.67;0.50;;;13.10;38.00;;;;;;10297824;28;20299;-78
2023/11/06 01:35:25;;;;;;;0.83;0.70;;;13.00;37.90;;;;;;10296782;28;20335;-78
2023/11/06 01:40:30;;;;;;;0.70;0.60;;;13.00;38.00;;;;;;10298244;28;20601;-78
2023/11/06 01:45:35;;;;;;;0.50;0.50;;;13.00;38.00;;;;;;10297327;28;20227;-78
2023/11/06 01:50:40;;;;;;;1.03;0.77;;;12.90;38.90;;;;;;10298507;28;20235;-78
2023/11/06 01:55:44;;;;;;;0.63;0.60;;;12.90;38.20;;;;;;10302345;28;20227;-78
2023/11/06 02:00:51;;;;;;;1.13;0.70;;;12.90;38.30;;;;;;10281477;28;20228;-77
2023/11/06 02:05:55;;;;;;;0.60;0.60;;;12.90;38.30;;;;;;10293171;28;20228;-77
2023/11/06 02:11:02;;;;;;;1.57;0.80;;;12.90;38.20;;;;;;10294027;28;20254;-78
2023/11/06 02:16:09;;;;;;;1.10;0.77;;;12.90;38.30;;;;;;10296917;28;20239;-77
2023/11/06 02:21:13;;;;;;;1.20;0.70;;;12.90;38.30;;;;;;10313311;28;20247;-78
2023/11/06 02:26:17;;;;;;;0.83;0.60;;;12.90;38.30;;;;;;10296898;28;20319;-78
2023/11/06 02:31:21;;;;;;;0.80;0.70;;;12.90;38.30;;;;;;10296712;28;20231;-78
2023/11/06 02:36:24;;;;;;;0.83;0.60;;;12.90;38.40;;;;;;10295160;28;20250;-77
2023/11/06 02:41:28;;;;;;;2.40;0.73;;;12.80;38.20;;;;;;10294164;28;20231;-77
2023/11/06 02:46:32;;;;;;;1.33;0.70;;;12.80;38.20;;;;;;10303135;28;20235;-77
2023/11/06 02:51:35;;;;;;;0.73;0.60;;;12.80;38.40;;;;;;10296001;28;20310;-77
2023/11/06 02:56:40;;;;;;;1.57;0.70;;;12.70;38.40;;;;;;10303382;28;20236;-78
2023/11/06 03:01:43;;;;;;;0.63;0.60;;;12.70;38.40;;;;;;10291265;28;20255;-78
2023/11/06 03:06:49;;;;;;;1.23;0.70;;;12.70;38.30;;;;;;10299605;28;20247;-77
2023/11/06 03:11:53;;;;;;;0.93;0.70;;;12.70;38.40;;;;;;10293739;28;20228;-76
2023/11/06 03:16:56;;;;;;;1.43;0.80;;;12.60;38.40;;;;;;10294252;28;20242;-76
2023/11/06 03:22:00;;;;;;;1.23;0.50;;;12.60;38.40;;;;;;10289073;28;20231;-76
2023/11/06 03:27:04;;;;;;;0.90;0.60;;;12.60;38.40;;;;;;10294508;28;20315;-77
2023/11/06 03:32:07;;;;;;;0.73;0.57;;;12.60;38.40;;;;;;10294291;28;20245;-76
2023/11/06 03:37:11;;;;;;;1.77;0.60;;;12.60;38.40;;;;;;10296143;28;20879;-76
2023/11/06 03:42:16;;;;;;;0.77;0.70;;;12.60;38.50;;;;;;10296837;28;20319;-76
2023/11/06 03:47:19;;;;;;;1.33;0.70;;;12.50;38.40;;;;;;10283875;28;20245;-76
2023/11/06 03:52:23;;;;;;;1.27;0.77;;;12.50;38.50;;;;;;10291544;28;20310;-77
2023/11/06 03:57:27;;;;;;;0.87;0.80;;;12.50;38.40;;;;;;10301754;28;20289;-77
2023/11/06 04:02:30;;;;;;;1.67;0.90;;;12.50;38.60;;;;;;10292897;28;20234;-79
2023/11/06 04:07:34;;;;;;;1.50;0.70;;;12.40;38.50;;;;;;10293543;28;20650;-77
2023/11/06 04:12:38;;;;;;;1.53;0.70;;;12.40;38.60;;;;;;10294011;28;20227;-77
2023/11/06 04:17:41;;;;;;;1.50;0.70;;;12.40;38.70;;;;;;10325721;28;20234;-77
2023/11/06 04:22:45;;;;;;;0.73;0.60;;;12.40;38.70;;;;;;10296325;28;20702;-77
2023/11/06 04:27:49;;;;;;;1.33;0.80;;;12.40;38.60;;;;;;10293371;28;20311;-77
2023/11/06 04:32:52;;;;;;;1.20;1.10;;;12.40;38.60;;;;;;10296858;28;20590;-77
2023/11/06 04:37:55;;;;;;;1.30;1.10;;;12.40;38.70;;;;;;10291285;28;20234;-77
2023/11/06 04:43:02;;;;;;;1.53;0.90;;;12.50;38.80;;;;;;10292009;28;20223;-77
2023/11/06 04:48:06;;;;;;;1.57;0.70;;;12.50;38.80;;;;;;10293086;28;20302;-77
2023/11/06 04:53:11;;;;;;;1.83;0.70;;;12.40;38.60;;;;;;10291626;28;20227;-77
2023/11/06 04:58:16;;;;;;;1.80;0.70;;;12.40;38.80;;;;;;10286454;28;20303;-77
2023/11/06 05:03:19;;;;;;;1.30;0.67;;;12.40;39.40;;;;;;10289549;28;20267;-75
2023/11/06 05:08:22;;;;;;;2.10;0.80;;;12.40;38.60;;;;;;10281844;28;20322;-74
2023/11/06 05:13:27;;;;;;;0.90;0.70;;;12.50;38.70;;;;;;10282790;28;20231;-74
2023/11/06 05:18:30;;;;;;;1.77;0.80;;;12.50;38.70;;;;;;10282445;28;20310;-75
2023/11/06 05:23:33;;;;;;;3.57;0.87;;;12.50;38.70;;;;;;10282132;28;20224;-75
2023/11/06 05:28:38;;;;;;;3.07;0.80;;;12.50;38.50;;;;;;10281874;28;20242;-75
2023/11/06 05:33:41;;;;;;;1.40;0.70;;;12.50;38.50;;;;;;10281810;28;20238;-75
2023/11/06 05:38:45;;;;;;;1.30;0.83;;;12.50;38.60;;;;;;10281778;28;20282;-75
2023/11/06 05:43:50;;;;;;;3.53;0.80;;;12.50;38.60;;;;;;10281841;28;20247;-75
2023/11/06 05:48:53;;;;;;;1.60;0.80;;;12.40;38.60;;;;;;10281162;28;20945;-75
2023/11/06 05:53:56;;;;;;;1.47;1.37;;;12.40;38.60;;;;;;10281799;28;20231;-75
2023/11/06 05:59:03;;;;;;;3.03;1.60;;;12.50;38.70;;;;;;10281629;28;20708;-74
2023/11/06 06:04:06;;;;;;;1.53;0.90;;;12.40;38.60;;;;;;10280804;28;20244;-75
2023/11/06 06:09:09;;;;;;;2.93;1.30;;;12.40;38.70;;;;;;10281550;28;20239;-75
2023/11/06 06:14:14;;;;;;;1.17;1.00;;;12.40;38.60;;;;;;10281130;28;20706;-75
2023/11/06 06:19:18;;;;;;;3.03;1.07;;;12.50;38.70;;;;;;10287735;28;20239;-75
2023/11/06 06:24:22;;;;;;;1.40;0.90;;;12.50;38.80;;;;;;10278762;28;20356;-75
2023/11/06 06:29:26;;;;;;;1.67;1.13;;;12.50;38.60;;;;;;10287007;28;20755;-74
2023/11/06 06:34:29;;;;;;;1.37;1.20;;;12.50;38.60;;;;;;10287291;28;20231;-74
2023/11/06 06:39:32;;;;;;;2.87;1.17;;;12.50;38.50;;;;;;10288091;28;20227;-75
2023/11/06 06:44:37;;;;;;;2.13;1.30;;;12.50;38.60;;;;;;10288110;28;20250;-75
2023/11/06 06:49:41;;;;;;;1.67;1.00;;;12.50;39.00;;;;;;10287555;28;20227;-74
2023/11/06 06:54:44;;;;;;;2.07;0.87;;;12.50;38.60;;;;;;10287567;28;20302;-75
2023/11/06 06:59:49;;;;;;;1.30;0.83;;;12.50;38.70;;;;;;10287533;28;20318;-76
2023/11/06 07:04:52;;;;;;;1.20;0.90;;;12.50;38.80;;;;;;10286941;28;20224;-75
2023/11/06 07:09:55;;;;;;;2.20;1.20;;;12.60;38.90;;;;;;10286885;28;20231;-75
2023/11/06 07:15:00;;;;;;;1.00;0.90;;;12.60;38.90;;;;;;10287375;28;20230;-76
2023/11/06 07:20:05;;;;;;;2.10;0.90;;;12.70;39.00;;;;;;10285965;28;20252;-75
2023/11/06 07:25:09;;;;;;;1.60;1.17;;;12.80;39.00;;;;;;10285064;28;20231;-74
2023/11/06 07:30:14;;;;;;;2.13;0.80;;;12.80;38.90;;;;;;10282445;28;20235;-74
2023/11/06 07:35:17;;;;;;;2.10;0.93;;;12.90;39.10;;;;;;10282465;28;20231;-74
2023/11/06 07:40:21;;;;;;;2.37;1.03;;;13.00;39.00;;;;;;10284926;28;20231;-74
2023/11/06 07:45:26;;;;;;;2.50;0.90;;;13.10;39.10;;;;;;10279282;28;20312;-74
2023/11/06 07:50:29;;;;;;;1.60;1.00;;;13.30;39.00;;;;;;10278497;28;20239;-74
2023/11/06 07:55:33;;;;;;;1.83;1.20;;;13.50;39.00;;;;;;10285049;28;20228;-74
2023/11/06 08:00:38;;;;;;;1.30;1.07;;;13.70;38.90;;;;;;10292081;28;20227;-74
2023/11/06 08:05:52;;;;;;;1.57;0.90;;;13.90;39.50;;;;;;10278593;28;20274;-74
2023/11/06 08:10:55;;;;;;;0.87;0.87;;;14.10;38.90;;;;;;10283705;28;21057;-74
2023/11/06 08:15:59;;;;;;;2.87;0.90;;;14.20;38.90;;;;;;10281764;28;20720;-74
2023/11/06 08:21:03;;;;;;;1.47;0.80;;;14.40;38.60;;;;;;10283726;28;20223;-74
2023/11/06 08:26:06;;;;;;;1.37;1.10;;;14.60;38.70;;;;;;10280464;28;20294;-74
2023/11/06 08:31:10;;;;;;;1.63;0.80;;;14.80;38.40;;;;;;10283139;28;20236;-74
2023/11/06 08:36:14;;;;;;;1.47;0.80;;;15.00;37.90;;;;;;10281190;28;20227;-74
2023/11/06 08:41:18;;;;;;;1.40;0.73;;;15.10;37.70;;;;;;10281337;28;20242;-74
2023/11/06 08:46:22;;;;;;;1.17;0.77;;;15.20;37.70;;;;;;10282199;28;20220;-74
2023/11/06 08:51:29;;;;;;;1.20;0.80;;;15.30;38.30;;;;;;10280596;28;20228;-74
2023/11/06 08:56:34;;;;;;;0.60;0.60;;;15.20;37.60;;;;;;10277282;28;20615;-74
2023/11/06 09:01:39;;;;;;;1.70;0.90;;;15.40;37.60;;;;;;10282163;28;20232;-74
2023/11/06 09:06:42;;;;;;;0.77;0.60;;;15.50;37.20;;;;;;10285444;28;20232;-74
2023/11/06 09:11:46;;;;;;;2.57;0.87;;;15.60;37.20;;;;;;10281866;28;20232;-74
2023/11/06 09:16:51;;;;;;;1.43;0.70;;;15.80;37.30;;;;;;10281034;28;20227;-74
2023/11/06 09:21:54;;;;;;;0.87;0.70;;;15.80;37.00;;;;;;10281253;28;20230;-74
2023/11/06 09:26:58;;;;;;;0.83;0.70;;;16.00;37.10;;;;;;10281522;28;20718;-74
2023/11/06 09:32:03;;;;;;;1.97;0.60;;;16.10;36.70;;;;;;10277785;28;20231;-74
2023/11/06 09:37:06;;;;;;;0.60;0.60;;;16.30;36.10;;;;;;10277413;28;20283;-74
2023/11/06 09:42:09;;;;;;;1.33;0.63;;;16.30;36.10;;;;;;10280751;28;20311;-74
2023/11/06 09:47:15;;;;;;;0.87;0.60;;;16.40;35.90;;;;;;10276459;28;20232;-74
2023/11/06 09:52:19;;;;;;;1.10;0.80;;;16.60;35.60;;;;;;10280945;28;20725;-74
2023/11/06 09:57:25;;;;;;;0.93;0.60;;;16.60;35.70;;;;;;10288059;28;20236;-74
2023/11/06 10:02:30;;;;;;;1.60;0.70;;;16.60;35.40;;;;;;10288141;28;20231;-74
2023/11/06 10:07:40;;;;;;;2.00;0.80;;;16.70;34.70;;;;;;10292712;28;20235;-74
2023/11/06 10:12:43;;;;;;;1.13;0.73;;;16.80;33.70;;;;;;10287398;28;20232;-74
2023/11/06 10:17:49;;;;;;;1.20;0.70;;;16.80;35.00;;;;;;10283602;28;20231;-74
2023/11/06 10:22:55;;;;;;;2.00;1.40;;;16.90;34.40;;;;;;10283442;28;20238;-74
2023/11/06 10:27:59;;;;;;;1.17;0.70;;;16.90;34.60;;;;;;10283599;28;20722;-74
2023/11/06 10:33:14;;;;;;;0.77;0.60;;;17.00;34.70;;;;;;10280709;28;20237;-74
2023/11/06 10:38:29;;;;;;;0.70;0.60;;;17.10;33.40;;;;;;10282303;28;20799;-74
2023/11/06 10:43:32;;;;;;;1.80;0.60;;;17.20;33.20;;;;;;10280263;28;20721;-74
2023/11/06 10:49:04;;;;;;;0.83;0.53;;;17.20;34.00;;;;;;10286027;28;20235;-74
2023/11/06 10:54:09;;;;;;;0.67;0.50;;;17.20;32.90;;;;;;10284703;28;20265;-74
2023/11/06 10:59:15;;;;;;;0.60;0.60;;;17.30;34.10;;;;;;10282153;28;20231;-74
2023/11/06 11:04:20;;;;;;;0.70;0.60;;;17.40;33.80;;;;;;10283573;28;20255;-74
2023/11/06 11:09:24;;;;;;;0.83;0.70;;;17.50;33.60;;;;;;10285549;28;20860;-74
2023/11/06 11:14:27;;;;;;;0.70;0.70;;;17.60;33.70;;;;;;10285794;28;20718;-74
2023/11/06 11:19:32;;;;;;;1.00;0.70;;;17.70;33.30;;;;;;10284978;28;20259;-74
2023/11/06 11:24:50;;;;;;;0.73;0.73;;;17.80;33.30;;;;;;10278852;28;20227;-74
2023/11/06 11:30:08;;;;;;;0.63;0.60;;;17.80;31.70;;;;;;10284329;28;20718;-74
2023/11/06 11:35:49;;;;;;;0.60;0.60;;;17.70;31.50;;;;;;10284519;28;20742;-74
2023/11/06 11:41:13;;;;;;;0.50;0.50;;;17.60;31.80;;;;;;10284149;28;20318;-74
2023/11/06 11:46:35;;;;;;;0.73;0.60;;;17.70;31.80;;;;;;10283107;28;20648;-74
2023/11/06 11:51:52;;;;;;;1.13;0.80;;;17.70;32.00;;;;;;10284544;28;20247;-74
2023/11/06 11:56:57;;;;;;;1.37;0.60;;;17.80;30.90;;;;;;10282862;28;20235;-74
2023/11/06 12:02:01;;;;;;;0.77;0.50;;;17.80;32.50;;;;;;10273244;28;20228;-74
2023/11/06 12:07:06;;;;;;;1.30;0.70;;;17.80;32.20;;;;;;10265805;28;20243;-74
2023/11/06 12:12:10;;;;;;;0.73;0.50;;;17.90;31.90;;;;;;10261590;28;21060;-75
2023/11/06 12:17:14;;;;;;;1.17;0.67;;;17.80;31.80;;;;;;10264640;28;20726;-75
2023/11/06 12:22:17;;;;;;;0.50;0.50;;;17.80;32.30;;;;;;10257702;28;21239;-74
2023/11/06 12:27:31;;;;;;;0.50;0.50;;;17.70;32.60;;;;;;10258743;28;20231;-76
2023/11/06 12:32:36;;;;;;;1.23;0.50;;;17.70;30.10;;;;;;10251133;28;21075;-76
2023/11/06 12:37:54;;;;;;;0.60;0.50;;;17.70;32.20;;;;;;10250671;28;20232;-75
2023/11/06 12:43:01;;;;;;;1.60;0.70;;;17.70;30.60;;;;;;10249997;28;20227;-75
2023/11/06 12:48:26;;;;;;;0.60;0.60;;;17.70;31.50;;;;;;10245717;28;20302;-75
2023/11/06 12:53:30;;;;;;;0.93;0.60;;;17.60;30.60;;;;;;10250392;28;20729;-74
2023/11/06 12:58:35;;;;;;;0.67;0.63;;;17.60;32.30;;;;;;10249696;28;20894;-75
2023/11/06 13:03:38;;;;;;;8.40;7.50;;;17.60;31.60;;;;;;10256117;28;20698;-75
2023/11/06 13:08:42;;;;;;;1.53;1.30;;;17.60;32.20;;;;;;10254648;28;20232;-75
2023/11/06 13:13:46;;;;;;;1.90;1.40;;;17.60;32.00;;;;;;10257677;28;20235;-76
2023/11/06 13:18:50;;;;;;;2.67;1.80;;;17.60;31.90;;;;;;10248000;28;20226;-74
2023/11/06 13:23:54;;;;;;;3.90;2.40;;;17.50;31.90;;;;;;10253371;28;20234;-74
2023/11/06 13:29:00;;;;;;;2.40;0.93;;;17.40;31.90;;;;;;10257627;28;20326;-74
2023/11/06 13:34:03;;;;;;;2.40;1.70;;;17.40;32.00;;;;;;10255625;28;20294;-74
2023/11/06 13:39:08;;;;;;;0.80;0.70;;;17.30;32.40;;;;;;10260609;28;20235;-74
2023/11/06 13:44:14;;;;;;;2.13;1.00;;;17.40;32.30;;;;;;10259298;28;20234;-73
2023/11/06 13:49:18;;;;;;;1.30;1.20;;;17.30;32.20;;;;;;10248077;28;20326;-73
2023/11/06 13:54:25;;;;;;;1.67;1.10;;;17.30;32.40;;;;;;10256849;28;20286;-74
2023/11/06 13:59:33;;;;;;;1.33;0.87;;;17.30;32.30;;;;;;10258636;28;20298;-74
2023/11/06 14:04:40;;;;;;;1.07;1.00;;;17.30;32.20;;;;;;10260332;28;20228;-73
2023/11/06 14:09:49;;;;;;;1.07;0.97;;;17.20;32.40;;;;;;10261265;28;20326;-73
2023/11/06 14:14:54;;;;;;;1.50;1.40;;;17.10;32.60;;;;;;10264292;28;20255;-73
2023/11/06 14:19:57;;;;;;;1.80;1.00;;;17.10;32.30;;;;;;10263708;28;20236;-72
2023/11/06 14:25:03;;;;;;;0.80;0.80;;;17.00;32.40;;;;;;10261499;28;20255;-73
2023/11/06 14:30:09;;;;;;;0.90;0.80;;;17.00;32.60;;;;;;10263339;28;20238;-73
2023/11/06 14:35:16;;;;;;;1.10;0.90;;;16.90;32.20;;;;;;10264359;28;20318;-73
2023/11/06 14:40:21;;;;;;;0.93;0.90;;;16.90;32.70;;;;;;10269825;28;20263;-73
2023/11/06 14:45:27;;;;;;;0.80;0.80;;;16.90;32.70;;;;;;10271239;28;20230;-73
2023/11/06 14:50:33;;;;;;;1.40;0.73;;;16.90;32.50;;;;;;10271047;28;20869;-73
2023/11/06 14:55:37;;;;;;;0.80;0.73;;;16.90;32.90;;;;;;10269405;28;20766;-73
2023/11/06 15:00:42;;;;;;;1.17;0.80;;;16.90;32.70;;;;;;10270524;28;20261;-73
2023/11/06 15:05:45;;;;;;;2.20;0.90;;;16.80;32.70;;;;;;10270162;28;20239;-73
2023/11/06 15:10:48;;;;;;;1.30;0.80;;;16.80;32.90;;;;;;10268424;28;20239;-73
2023/11/06 15:15:55;;;;;;;0.70;0.70;;;16.70;32.90;;;;;;10250803;28;20234;-73
2023/11/06 15:20:58;;;;;;;0.80;0.80;;;16.70;32.90;;;;;;10232777;28;20815;-73
2023/11/06 15:26:01;;;;;;;1.63;1.00;;;16.70;33.00;;;;;;10236022;28;20307;-73
2023/11/06 15:31:06;;;;;;;1.20;1.10;;;16.60;33.10;;;;;;10236712;28;20239;-73
2023/11/06 15:36:10;;;;;;;3.53;2.17;;;16.60;33.00;;;;;;10235634;28;20311;-73
2023/11/06 15:41:13;;;;;;;3.47;2.90;;;16.60;33.10;;;;;;10236491;28;20240;-73
2023/11/06 15:46:18;;;;;;;3.67;2.90;;;16.60;33.20;;;;;;10236573;28;20639;-73
2023/11/06 15:51:32;;;;;;;2.43;2.20;;;16.50;32.90;;;;;;10259195;28;20266;-74
2023/11/06 15:56:35;;;;;;;3.50;3.10;;;16.60;33.20;;;;;;10274927;28;20469;-74
2023/11/06 16:01:39;;;;;;;3.13;2.83;;;16.60;33.30;;;;;;10274584;28;20223;-73
2023/11/06 16:06:43;;;;;;;2.47;1.87;;;16.50;33.00;;;;;;10275034;28;20277;-74
2023/11/06 16:11:46;;;;;;;2.20;1.60;;;16.50;33.00;;;;;;10274214;28;20239;-73
2023/11/06 16:16:50;;;;;;;2.33;2.13;;;16.60;33.30;;;;;;10275572;28;20227;-73
2023/11/06 16:21:54;;;;;;;8.47;7.63;;;16.50;33.10;;;;;;10274311;28;20223;-73
2023/11/06 16:26:57;;;;;;;18.77;16.17;;;16.50;33.20;;;;;;10267203;28;20265;-74
2023/11/06 16:32:01;;;;;;;18.97;15.60;;;16.50;33.20;;;;;;10240780;28;20231;-74
2023/11/06 16:37:05;;;;;;;16.03;13.57;;;16.50;33.40;;;;;;10273408;28;20564;-74
2023/11/06 16:42:09;;;;;;;17.10;15.03;;;16.60;33.50;;;;;;10274117;28;20718;-75
2023/11/06 16:47:14;;;;;;;22.23;19.83;;;16.60;33.50;;;;;;10273419;28;20243;-75
2023/11/06 16:52:18;;;;;;;18.20;16.43;;;16.50;33.30;;;;;;10272315;28;20298;-74
2023/11/06 16:57:21;;;;;;;18.43;16.53;;;16.50;33.30;;;;;;10272496;28;20240;-74
2023/11/06 17:02:26;;;;;;;7.43;6.70;;;16.40;33.30;;;;;;10272557;28;20307;-74
2023/11/06 17:07:30;;;;;;;4.97;3.40;;;16.40;33.30;;;;;;10272403;28;20310;-74
2023/11/06 17:12:33;;;;;;;3.23;2.70;;;16.30;33.30;;;;;;10272719;28;20608;-74
2023/11/06 17:17:38;;;;;;;3.60;3.30;;;16.30;33.30;;;;;;10272857;28;20265;-74
2023/11/06 17:22:41;;;;;;;4.43;3.33;;;16.20;33.20;;;;;;10271594;28;20311;-74
2023/11/06 17:27:45;;;;;;;7.30;4.90;;;16.20;33.20;;;;;;10272252;28;20740;-74
2023/11/06 17:32:49;;;;;;;5.27;4.60;;;16.20;33.20;;;;;;10272613;28;20945;-74
2023/11/06 17:37:53;;;;;;;5.10;4.40;;;16.20;33.20;;;;;;10272299;28;20314;-75
2023/11/06 17:42:56;;;;;;;5.00;3.63;;;16.20;33.20;;;;;;10272459;28;20306;-74
2023/11/06 17:48:02;;;;;;;4.20;3.80;;;16.10;33.10;;;;;;10272783;28;20322;-74
2023/11/06 17:53:06;;;;;;;4.97;3.73;;;16.00;33.00;;;;;;10271201;28;20235;-74
2023/11/06 17:58:10;;;;;;;3.57;3.17;;;15.90;32.90;;;;;;10271914;28;20646;-75
2023/11/06 18:03:14;;;;;;;5.70;5.30;;;15.70;33.10;;;;;;10272271;28;20232;-74
2023/11/06 18:08:18;;;;;;;4.67;4.27;;;15.50;33.30;;;;;;10270967;28;20341;-74
2023/11/06 18:13:27;;;;;;;8.60;7.70;;;15.30;33.60;;;;;;10274703;28;20785;-73
2023/11/06 18:18:32;;;;;;;8.20;7.40;;;15.20;33.90;;;;;;10279610;28;20239;-73
2023/11/06 18:23:37;;;;;;;8.67;7.80;;;15.10;34.20;;;;;;10272586;28;20224;-73
2023/11/06 18:28:40;;;;;;;7.60;6.80;;;15.00;34.20;;;;;;10284764;28;20227;-76
2023/11/06 18:33:45;;;;;;;6.00;5.40;;;15.00;34.60;;;;;;10284400;28;20234;-74
2023/11/06 18:38:48;;;;;;;7.27;4.53;;;14.90;34.80;;;;;;10267780;28;20335;-75
2023/11/06 18:43:52;;;;;;;3.47;3.17;;;14.80;34.90;;;;;;10276624;28;20231;-74
2023/11/06 18:48:56;;;;;;;2.10;2.00;;;14.80;34.90;;;;;;10275573;28;20255;-75
2023/11/06 18:54:00;;;;;;;4.60;3.00;;;14.70;35.10;;;;;;10279257;28;20234;-74
2023/11/06 18:59:04;;;;;;;3.40;3.10;;;14.60;35.10;;;;;;10280231;28;20656;-74
2023/11/06 19:04:11;;;;;;;3.50;3.20;;;14.50;35.10;;;;;;10279543;28;20243;-74
2023/11/06 19:09:17;;;;;;;2.83;2.60;;;14.50;35.40;;;;;;10279990;28;20319;-74
2023/11/06 19:14:20;;;;;;;3.63;3.30;;;14.40;35.90;;;;;;10274041;28;20232;-74
2023/11/06 19:19:25;;;;;;;3.00;2.70;;;14.40;35.20;;;;;;10274315;28;20235;-74
2023/11/06 19:24:28;;;;;;;3.37;2.03;;;14.50;35.30;;;;;;10279622;28;20597;-74
2023/11/06 19:29:32;;;;;;;2.60;2.10;;;14.40;35.10;;;;;;10275217;28;20848;-75
2023/11/06 19:34:39;;;;;;;2.70;1.13;;;14.30;35.20;;;;;;10280205;28;20232;-74
2023/11/06 19:39:44;;;;;;;1.00;1.00;;;14.30;35.20;;;;;;10283025;28;20805;-74
2023/11/06 19:44:49;;;;;;;1.27;0.97;;;14.40;35.30;;;;;;10282123;28;20319;-74
2023/11/06 19:49:54;;;;;;;1.00;0.90;;;14.40;35.20;;;;;;10282158;28;20228;-74
2023/11/06 19:54:57;;;;;;;1.13;1.00;;;14.40;35.10;;;;;;10282418;28;20330;-74
2023/11/06 20:00:03;;;;;;;1.30;1.20;;;14.50;35.10;;;;;;10283019;28;20243;-74
2023/11/06 20:05:19;;;;;;;0.93;0.87;;;14.50;35.10;;;;;;10279398;28;20266;-74
2023/11/06 20:10:22;;;;;;;1.10;1.00;;;14.50;35.10;;;;;;10281539;28;20239;-74
2023/11/06 20:15:26;;;;;;;1.23;1.00;;;14.60;35.00;;;;;;10281287;28;20242;-74
2023/11/06 20:20:30;;;;;;;0.90;0.90;;;14.60;35.00;;;;;;10281102;28;20251;-73
2023/11/06 20:25:33;;;;;;;0.93;0.93;;;14.60;35.10;;;;;;10280867;28;20326;-74
2023/11/06 20:30:37;;;;;;;1.10;1.00;;;14.50;35.00;;;;;;10280781;28;20367;-73
2023/11/06 20:35:41;;;;;;;0.80;0.80;;;14.60;35.10;;;;;;10279061;28;21042;-73
2023/11/06 20:40:45;;;;;;;1.73;1.10;;;14.60;34.80;;;;;;10279151;28;20231;-74
2023/11/06 20:45:48;;;;;;;1.20;1.10;;;14.60;34.70;;;;;;10278401;28;20235;-73
2023/11/06 20:50:53;;;;;;;3.50;1.30;;;14.50;34.60;;;;;;10277967;28;20765;-73
2023/11/06 20:55:57;;;;;;;0.80;0.80;;;14.50;34.70;;;;;;10279824;28;20657;-72
2023/11/06 21:01:01;;;;;;;1.10;1.00;;;14.40;34.60;;;;;;10279280;28;20306;-73
2023/11/06 21:06:06;;;;;;;1.10;1.00;;;14.30;34.60;;;;;;10278983;28;20227;-75
2023/11/06 21:11:09;;;;;;;1.10;1.00;;;14.20;34.70;;;;;;10280536;28;20250;-74
2023/11/06 21:16:12;;;;;;;1.00;1.00;;;14.20;34.70;;;;;;10280446;28;20242;-76
2023/11/06 21:21:18;;;;;;;0.70;0.70;;;14.00;34.80;;;;;;10280859;28;20677;-76
2023/11/06 21:26:22;;;;;;;0.77;0.77;;;13.90;34.90;;;;;;10280318;28;20243;-75
2023/11/06 21:31:25;;;;;;;0.73;0.67;;;13.90;35.00;;;;;;10279120;28;20254;-76
2023/11/06 21:36:30;;;;;;;0.63;0.63;;;13.80;35.10;;;;;;10279100;28;20276;-75
2023/11/06 21:41:33;;;;;;;0.93;0.80;;;13.80;35.30;;;;;;10277688;28;20227;-75
2023/11/06 21:46:41;;;;;;;0.80;0.70;;;13.80;35.10;;;;;;10272967;28;20688;-73
2023/11/06 21:51:46;;;;;;;1.37;1.20;;;13.80;35.30;;;;;;10270146;28;20334;-74
2023/11/06 21:56:50;;;;;;;0.80;0.80;;;13.80;35.30;;;;;;10271592;28;20915;-75
2023/11/06 22:01:55;;;;;;;1.50;0.80;;;13.90;35.30;;;;;;10270889;28;20238;-75
2023/11/06 22:06:59;;;;;;;1.00;0.90;;;13.90;35.20;;;;;;10271445;28;20230;-74
2023/11/06 22:12:02;;;;;;;0.77;0.77;;;13.90;35.10;;;;;;10270520;28;20781;-75
2023/11/06 22:17:06;;;;;;;0.60;0.60;;;13.80;35.10;;;;;;10270494;28;20239;-75
2023/11/06 22:22:11;;;;;;;0.53;0.53;;;13.90;35.20;;;;;;10270568;28;20286;-75
2023/11/06 22:27:14;;;;;;;0.60;0.60;;;13.80;35.00;;;;;;10267659;28;20761;-75
2023/11/06 22:32:17;;;;;;;0.70;0.70;;;13.80;35.10;;;;;;10250017;28;20803;-75
2023/11/06 22:37:23;;;;;;;0.60;0.60;;;13.80;35.00;;;;;;10270233;28;20239;-75
2023/11/06 22:42:26;;;;;;;1.13;0.60;;;13.80;34.90;;;;;;10275337;28;20604;-75
2023/11/06 22:47:29;;;;;;;0.50;0.50;;;13.90;35.00;;;;;;10274083;28;20652;-74
2023/11/06 22:52:34;;;;;;;0.60;0.60;;;13.80;35.10;;;;;;10277172;28;20259;-75
2023/11/06 22:57:37;;;;;;;0.83;0.60;;;13.70;35.10;;;;;;10277164;28;20330;-74
2023/11/06 23:02:41;;;;;;;0.50;0.50;;;13.60;35.20;;;;;;10277800;28;20233;-74
2023/11/06 23:07:45;;;;;;;0.60;0.60;;;13.60;35.40;;;;;;10277181;28;20306;-74
2023/11/06 23:12:49;;;;;;;0.90;0.90;;;13.50;35.60;;;;;;10276087;28;20319;-74
2023/11/06 23:17:52;;;;;;;1.07;0.70;;;13.40;35.70;;;;;;10272223;28;20239;-74
2023/11/06 23:22:58;;;;;;;0.57;0.57;;;13.40;35.80;;;;;;10275632;28;20651;-74
2023/11/06 23:28:01;;;;;;;0.60;0.60;;;13.30;36.00;;;;;;10275698;28;20235;-75
2023/11/06 23:33:04;;;;;;;0.50;0.50;;;13.30;35.80;;;;;;10275848;28;20243;-74
2023/11/06 23:38:09;;;;;;;1.60;0.60;;;13.30;35.80;;;;;;10275526;28;20238;-74
2023/11/06 23:43:12;;;;;;;0.50;0.50;;;13.40;36.00;;;;;;10275866;28;20261;-74
2023/11/06 23:48:16;;;;;;;0.60;0.60;;;13.30;35.70;;;;;;10275489;28;20941;-74
2023/11/06 23:53:22;;;;;;;0.50;0.50;;;13.20;35.70;;;;;;10273977;28;20270;-74
2023/11/06 23:58:25;;;;;;;0.60;0.60;;;13.20;35.80;;;;;;10275394;28;20236;-74
